Time;durP1;ratioP1;P1;durP2;ratioP2;P2;SDS_P1;SDS_P2;PMS_P1;PMS_P2;Temp;Humidity;BMP_temperature;BMP_pressure;BME280_temperature;BME280_humidity;BME280_pressure;Samples;Min_cycle;Max_cycle;Signal;HPM_P1;HPM_P2
2023/10/22 00:01:31;;;;;;;;;;;;;;;10.98;42.24;100466.66;5096531;28;19971;-65
2023/10/22 00:03:56;;;;;;;;;;;;;;;10.99;42.44;100479.06;5097093;28;20389;-66
2023/10/22 00:06:22;;;;;;;;;;;;;;;11.02;42.25;100469.81;5097786;28;19963;-66
2023/10/22 00:08:47;;;;;;;;;;;;;;;11.08;42.25;100463.63;5098255;28;19912;-66
2023/10/22 00:11:13;;;;;;;;;;;;;;;11.11;41.64;100474.00;5096457;28;20003;-66
2023/10/22 00:13:38;;;;;;;;;;;;;;;11.13;42.07;100465.75;5094302;28;19947;-66
2023/10/22 00:16:03;;;;;;;;;;;;;;;11.11;42.01;100463.25;5079780;28;19912;-66
2023/10/22 00:18:29;;;;;;;;;;;;;;;11.11;42.11;100459.72;5118371;28;19912;-66
2023/10/22 00:20:57;;;;;;;;;;;;;;;11.12;41.84;100458.69;5112170;28;20373;-65
2023/10/22 00:23:22;;;;;;;;;;;;;;;11.03;41.63;100461.53;5098095;28;19920;-66
2023/10/22 00:25:48;;;;;;;;;;;;;;;11.06;42.02;100460.31;5095744;28;20359;-66
2023/10/22 00:28:13;;;;;;;;;;;;;;;11.03;41.66;100464.22;5114365;28;19943;-66
2023/10/22 00:30:38;;;;;;;;;;;;;;;11.03;42.02;100474.97;5103733;28;19965;-66
2023/10/22 00:33:04;;;;;;;;;;;;;;;11.08;41.93;100468.19;5096980;28;20261;-66
2023/10/22 00:35:29;;;;;;;;;;;;;;;11.08;41.96;100465.50;5095787;28;19916;-66
2023/10/22 00:37:54;;;;;;;;;;;;;;;11.09;41.95;100454.56;5096728;28;20458;-66
2023/10/22 00:40:19;;;;;;;;;;;;;;;11.10;41.91;100447.31;5095796;28;20027;-66
2023/10/22 00:42:44;;;;;;;;;;;;;;;11.07;41.68;100453.91;5105267;28;19919;-65
2023/10/22 00:45:10;;;;;;;;;;;;;;;11.09;41.74;100443.81;5090808;28;19965;-65
2023/10/22 00:47:36;;;;;;;;;;;;;;;11.13;42.19;100445.06;5106193;28;19974;-65
2023/10/22 00:50:02;;;;;;;;;;;;;;;11.19;41.82;100443.44;5077897;28;19912;-65
2023/10/22 00:52:27;;;;;;;;;;;;;;;11.23;41.87;100442.00;5095536;28;20319;-65
2023/10/22 00:54:54;;;;;;;;;;;;;;;11.24;41.73;100444.50;5095573;28;19973;-64
2023/10/22 00:57:20;;;;;;;;;;;;;;;11.24;41.33;100441.81;5098653;28;20073;-64
2023/10/22 00:59:47;;;;;;;;;;;;;;;11.17;41.41;100440.94;5097571;28;19919;-65
2023/10/22 01:02:13;;;;;;;;;;;;;;;11.20;42.07;100445.09;5095122;28;19920;-66
2023/10/22 01:04:38;;;;;;;;;;;;;;;11.18;42.21;100442.63;5095409;28;19916;-65
2023/10/22 01:07:05;;;;;;;;;;;;;;;11.21;41.55;100438.69;5095097;28;20246;-65
2023/10/22 01:09:30;;;;;;;;;;;;;;;11.24;41.51;100443.69;5076832;28;20273;-66
2023/10/22 01:11:59;;;;;;;;;;;;;;;11.27;41.86;100435.19;5094953;28;19927;-66
2023/10/22 01:14:24;;;;;;;;;;;;;;;11.32;41.25;100437.31;5103754;28;19915;-66
2023/10/22 01:16:49;;;;;;;;;;;;;;;11.33;41.80;100439.78;5069491;28;19927;-66
2023/10/22 01:19:15;;;;;;;;;;;;;;;11.36;41.59;100436.69;5077814;28;19927;-66
2023/10/22 01:21:40;;;;;;;;;;;;;;;11.39;41.56;100436.31;5096710;28;19916;-66
2023/10/22 01:24:05;;;;;;;;;;;;;;;11.41;41.35;100431.56;5095558;28;20377;-66
2023/10/22 01:26:31;;;;;;;;;;;;;;;11.47;41.82;100424.53;5094892;28;19998;-66
2023/10/22 01:28:56;;;;;;;;;;;;;;;11.45;41.35;100423.91;5096314;28;19916;-66
2023/10/22 01:31:21;;;;;;;;;;;;;;;11.43;41.40;100421.41;5082527;28;19916;-66
2023/10/22 01:33:47;;;;;;;;;;;;;;;11.48;41.48;100415.47;5095373;28;19912;-66
2023/10/22 01:36:12;;;;;;;;;;;;;;;11.47;41.35;100421.03;5108043;28;20391;-66
2023/10/22 01:38:37;;;;;;;;;;;;;;;11.48;41.20;100415.47;5093398;28;19919;-66
2023/10/22 01:41:06;;;;;;;;;;;;;;;11.47;41.32;100421.84;5094153;28;19919;-66
2023/10/22 01:43:31;;;;;;;;;;;;;;;11.46;41.17;100411.28;5075751;28;19923;-65
2023/10/22 01:45:56;;;;;;;;;;;;;;;11.43;41.05;100409.84;5109224;28;19922;-66
2023/10/22 01:48:22;;;;;;;;;;;;;;;11.54;41.57;100419.19;5094417;28;19912;-66
2023/10/22 01:50:47;;;;;;;;;;;;;;;11.55;41.44;100413.63;5100861;28;20376;-65
2023/10/22 01:53:12;;;;;;;;;;;;;;;11.52;41.65;100403.25;5093574;28;19920;-65
2023/10/22 01:55:37;;;;;;;;;;;;;;;11.55;41.38;100400.19;5089188;28;19955;-65
2023/10/22 01:58:02;;;;;;;;;;;;;;;11.53;41.81;100390.63;5094929;28;19923;-65
2023/10/22 02:00:28;;;;;;;;;;;;;;;11.52;41.56;100387.13;5109774;28;19943;-65
2023/10/22 02:02:53;;;;;;;;;;;;;;;11.51;41.70;100392.69;5092428;28;19923;-65
2023/10/22 02:05:18;;;;;;;;;;;;;;;11.46;41.30;100387.94;5095068;28;19938;-66
2023/10/22 02:07:43;;;;;;;;;;;;;;;11.45;41.36;100377.38;5093788;28;19919;-65
2023/10/22 02:10:09;;;;;;;;;;;;;;;11.47;41.23;100384.19;5092825;28;20384;-66
2023/10/22 02:12:36;;;;;;;;;;;;;;;11.50;41.47;100391.06;5095829;28;19919;-65
2023/10/22 02:15:02;;;;;;;;;;;;;;;11.49;41.60;100397.44;5094472;28;19916;-66
2023/10/22 02:17:27;;;;;;;;;;;;;;;11.52;41.76;100394.38;5124002;27;20302;-66
2023/10/22 02:19:52;;;;;;;;;;;;;;;11.53;41.68;100396.84;5114094;28;19954;-66
2023/10/22 02:22:18;;;;;;;;;;;;;;;11.53;41.09;100393.31;5108809;28;20002;-66
2023/10/22 02:24:43;;;;;;;;;;;;;;;11.41;41.18;100401.16;5094285;28;19924;-66
2023/10/22 02:27:08;;;;;;;;;;;;;;;11.43;41.56;100397.22;5095058;28;19913;-66
2023/10/22 02:29:34;;;;;;;;;;;;;;;11.45;41.30;100399.72;5095341;28;19916;-66
2023/10/22 02:31:59;;;;;;;;;;;;;;;11.47;41.68;100394.13;5095954;28;20368;-65
2023/10/22 02:34:25;;;;;;;;;;;;;;;11.47;41.74;100396.81;5098937;28;19916;-65
2023/10/22 02:36:50;;;;;;;;;;;;;;;11.50;41.70;100402.63;5100831;28;19927;-65
2023/10/22 02:39:15;;;;;;;;;;;;;;;11.45;41.70;100402.41;5102065;28;19922;-66
2023/10/22 02:41:41;;;;;;;;;;;;;;;11.47;41.27;100394.13;5093958;28;19920;-65
2023/10/22 02:44:06;;;;;;;;;;;;;;;11.47;41.83;100396.81;5094073;28;19916;-66
2023/10/22 02:46:31;;;;;;;;;;;;;;;11.52;41.64;100400.56;5094833;28;20369;-67
2023/10/22 02:48:58;;;;;;;;;;;;;;;11.56;41.61;100401.00;5092519;28;19916;-66
2023/10/22 02:51:23;;;;;;;;;;;;;;;11.55;41.21;100400.19;5105267;28;19911;-66
2023/10/22 02:53:48;;;;;;;;;;;;;;;11.50;41.11;100399.94;5105510;28;20049;-66
2023/10/22 02:56:14;;;;;;;;;;;;;;;11.56;41.64;100401.81;5096036;28;19916;-66
2023/10/22 02:58:40;;;;;;;;;;;;;;;11.53;40.95;100399.53;5093834;28;19969;-65
2023/10/22 03:01:06;;;;;;;;;;;;;;;11.57;41.46;100395.44;5094859;28;19923;-65
2023/10/22 03:03:31;;;;;;;;;;;;;;;11.61;41.54;100403.91;5085706;28;19916;-65
2023/10/22 03:05:57;;;;;;;;;;;;;;;11.59;41.52;100395.22;5094490;28;19923;-66
2023/10/22 03:08:22;;;;;;;;;;;;;;;11.56;41.02;100401.81;5095592;28;20042;-65
2023/10/22 03:10:48;;;;;;;;;;;;;;;11.59;41.53;100406.81;5092756;28;20007;-66
2023/10/22 03:13:15;;;;;;;;;;;;;;;11.57;41.41;100408.88;5094195;28;19916;-66
2023/10/22 03:15:40;;;;;;;;;;;;;;;11.57;40.98;100402.63;5093443;28;20048;-66
2023/10/22 03:18:07;;;;;;;;;;;;;;;11.56;41.23;100395.63;5094447;28;20400;-66
2023/10/22 03:20:35;;;;;;;;;;;;;;;11.59;41.28;100398.75;5088706;28;20007;-66
2023/10/22 03:23:03;;;;;;;;;;;;;;;11.59;40.90;100395.22;5093733;28;19927;-66
2023/10/22 03:25:28;;;;;;;;;;;;;;;11.59;41.03;100400.59;5091590;28;20440;-66
2023/10/22 03:27:53;;;;;;;;;;;;;;;11.61;41.08;100395.84;5089111;28;19947;-65
2023/10/22 03:30:19;;;;;;;;;;;;;;;11.60;41.63;100397.69;5080626;28;19958;-65
2023/10/22 03:32:45;;;;;;;;;;;;;;;11.58;41.42;100389.00;5093454;28;20007;-65
2023/10/22 03:35:11;;;;;;;;;;;;;;;11.59;41.15;100393.34;5105271;28;20024;-65
2023/10/22 03:37:36;;;;;;;;;;;;;;;11.59;41.03;100390.66;5096300;28;19919;-65
2023/10/22 03:40:01;;;;;;;;;;;;;;;11.64;41.44;100398.13;5094107;28;19916;-65
2023/10/22 03:42:27;;;;;;;;;;;;;;;11.57;41.09;100390.03;5094976;28;19951;-66
2023/10/22 03:44:52;;;;;;;;;;;;;;;11.64;41.69;100398.13;5092617;28;19955;-66
2023/10/22 03:47:17;;;;;;;;;;;;;;;11.58;41.01;100393.56;5094643;28;19912;-65
2023/10/22 03:49:42;;;;;;;;;;;;;;;11.57;41.53;100394.56;5094942;28;19946;-65
2023/10/22 03:52:08;;;;;;;;;;;;;;;11.59;41.68;100393.34;5091932;28;20416;-65
2023/10/22 03:54:33;;;;;;;;;;;;;;;11.65;40.99;100396.28;5089229;28;19923;-66
2023/10/22 03:56:58;;;;;;;;;;;;;;;11.63;41.59;100397.28;5099725;28;20074;-66
2023/10/22 03:59:24;;;;;;;;;;;;;;;11.60;41.39;100388.81;5095199;28;19912;-65
2023/10/22 04:01:49;;;;;;;;;;;;;;;11.60;41.48;100386.94;5107258;28;19920;-65
2023/10/22 04:04:14;;;;;;;;;;;;;;;11.62;41.42;100386.72;5097891;28;20016;-66
2023/10/22 04:06:39;;;;;;;;;;;;;;;11.60;41.75;100381.56;5103546;28;20015;-66
2023/10/22 04:09:05;;;;;;;;;;;;;;;11.57;41.14;100384.66;5095592;28;19969;-66
2023/10/22 04:11:30;;;;;;;;;;;;;;;11.60;41.20;100378.84;5097004;28;19924;-66
2023/10/22 04:13:55;;;;;;;;;;;;;;;11.56;41.42;100384.88;5097676;28;19959;-66
2023/10/22 04:16:20;;;;;;;;;;;;;;;11.59;41.27;100382.59;5098320;28;19916;-66
2023/10/22 04:18:46;;;;;;;;;;;;;;;11.54;41.52;100377.00;5095384;28;20521;-66
2023/10/22 04:21:12;;;;;;;;;;;;;;;11.58;41.11;100377.41;5097766;28;20433;-66
2023/10/22 04:23:37;;;;;;;;;;;;;;;11.58;41.32;100383.63;5097164;28;19958;-66
2023/10/22 04:26:02;;;;;;;;;;;;;;;11.63;41.67;100383.03;5096752;28;19931;-66
2023/10/22 04:28:28;;;;;;;;;;;;;;;11.57;41.69;100379.28;5098051;28;19916;-66
2023/10/22 04:30:54;;;;;;;;;;;;;;;11.59;41.02;100387.16;5097479;28;19924;-66
2023/10/22 04:33:19;;;;;;;;;;;;;;;11.58;41.31;100374.72;5098538;28;19912;-66
2023/10/22 04:35:44;;;;;;;;;;;;;;;11.52;41.11;100379.06;5097478;28;19922;-66
2023/10/22 04:38:13;;;;;;;;;;;;;;;11.61;41.38;100379.72;5097211;28;20372;-66
2023/10/22 04:40:38;;;;;;;;;;;;;;;11.54;41.56;100382.38;5094095;28;19979;-66
2023/10/22 04:43:04;;;;;;;;;;;;;;;11.59;41.73;100389.84;5099793;28;20340;-66
2023/10/22 04:45:29;;;;;;;;;;;;;;;11.64;41.23;100379.28;5119970;28;20330;-66
2023/10/22 04:47:55;;;;;;;;;;;;;;;11.52;41.12;100380.94;5089240;28;19923;-66
2023/10/22 04:50:21;;;;;;;;;;;;;;;11.53;41.56;100378.00;5091169;28;19946;-66
2023/10/22 04:52:46;;;;;;;;;;;;;;;11.58;41.27;100378.25;5099389;28;20360;-66
2023/10/22 04:55:11;;;;;;;;;;;;;;;11.58;41.33;100380.09;5094493;28;20266;-66
2023/10/22 04:57:37;;;;;;;;;;;;;;;11.65;41.84;100391.72;5097537;28;20261;-66
2023/10/22 05:00:04;;;;;;;;;;;;;;;11.66;41.22;100379.91;5095125;28;19923;-66
2023/10/22 05:02:29;;;;;;;;;;;;;;;11.68;41.82;100388.63;5088433;28;19989;-66
2023/10/22 05:04:54;;;;;;;;;;;;;;;11.68;41.74;100383.25;5096126;28;20639;-66
2023/10/22 05:07:20;;;;;;;;;;;;;;;11.71;41.38;100384.69;5095453;28;20276;-66
2023/10/22 05:09:45;;;;;;;;;;;;;;;11.73;41.34;100394.22;5096785;28;19935;-66
2023/10/22 05:12:10;;;;;;;;;;;;;;;11.73;41.07;100390.69;5094468;28;20415;-66
2023/10/22 05:14:36;;;;;;;;;;;;;;;11.72;40.90;100389.03;5094703;28;20200;-66
2023/10/22 05:17:01;;;;;;;;;;;;;;;11.70;41.41;100393.78;5100992;28;19916;-66
2023/10/22 05:19:27;;;;;;;;;;;;;;;11.72;41.26;100387.19;5095230;28;19923;-66
2023/10/22 05:21:52;;;;;;;;;;;;;;;11.74;41.34;100382.44;5095835;28;20288;-66
2023/10/22 05:24:18;;;;;;;;;;;;;;;11.71;41.38;100379.31;5093954;28;20019;-66
2023/10/22 05:26:43;;;;;;;;;;;;;;;11.69;41.37;100387.59;5096175;28;19916;-66
2023/10/22 05:29:08;;;;;;;;;;;;;;;11.71;41.30;100380.13;5106168;28;19915;-66
2023/10/22 05:31:33;;;;;;;;;;;;;;;11.71;40.97;100377.44;5096194;28;20467;-66
2023/10/22 05:33:59;;;;;;;;;;;;;;;11.72;41.69;100379.13;5096262;28;20037;-66
2023/10/22 05:36:24;;;;;;;;;;;;;;;11.74;41.25;100376.22;5099005;28;19923;-66
2023/10/22 05:38:50;;;;;;;;;;;;;;;11.71;41.16;100374.75;5097303;28;19922;-66
2023/10/22 05:41:17;;;;;;;;;;;;;;;11.70;41.63;100381.19;5076975;28;20296;-66
2023/10/22 05:43:42;;;;;;;;;;;;;;;11.73;41.17;100382.63;5092275;28;20284;-66
2023/10/22 05:46:07;;;;;;;;;;;;;;;11.78;41.30;100372.09;5096552;28;19931;-66
2023/10/22 05:48:32;;;;;;;;;;;;;;;11.76;41.11;100377.69;5105067;28;20357;-67
2023/10/22 05:50:59;;;;;;;;;;;;;;;11.76;41.17;100379.53;5094473;28;19916;-66
2023/10/22 05:53:25;;;;;;;;;;;;;;;11.74;41.07;100382.44;5095654;28;20332;-66
2023/10/22 05:55:59;;;;;;;;;;;;;;;11.70;41.36;100386.56;5096819;28;19916;-66
2023/10/22 05:58:25;;;;;;;;;;;;;;;11.73;41.48;100391.53;5101028;28;20380;-65
2023/10/22 06:00:51;;;;;;;;;;;;;;;11.73;41.01;100383.44;5099576;28;19920;-65
2023/10/22 06:03:16;;;;;;;;;;;;;;;11.64;41.56;100392.75;5086827;28;19918;-65
2023/10/22 06:05:41;;;;;;;;;;;;;;;11.66;41.55;100382.59;5061593;28;19912;-65
2023/10/22 06:08:07;;;;;;;;;;;;;;;11.63;41.90;100375.78;5095097;28;19912;-65
2023/10/22 06:10:38;;;;;;;;;;;;;;;11.63;41.32;100385.72;5095423;28;19924;-65
2023/10/22 06:13:03;;;;;;;;;;;;;;;11.63;41.52;100375.78;5096405;28;19929;-65
2023/10/22 06:15:28;;;;;;;;;;;;;;;11.69;41.46;100392.16;5101859;28;19916;-66
2023/10/22 06:17:54;;;;;;;;;;;;;;;11.69;41.61;100398.34;5096138;28;19969;-65
2023/10/22 06:20:19;;;;;;;;;;;;;;;11.70;41.36;100391.09;5094911;28;19916;-65
2023/10/22 06:22:45;;;;;;;;;;;;;;;11.71;41.82;100406.22;5098736;28;19915;-65
2023/10/22 06:25:10;;;;;;;;;;;;;;;11.71;41.72;100401.66;5061165;28;19924;-65
2023/10/22 06:27:36;;;;;;;;;;;;;;;11.73;41.58;100401.47;5093837;28;20322;-64
2023/10/22 06:30:01;;;;;;;;;;;;;;;11.76;41.46;100398.38;5095623;28;19912;-65
2023/10/22 06:32:26;;;;;;;;;;;;;;;11.75;41.93;100404.78;5090497;28;20003;-66
2023/10/22 06:34:52;;;;;;;;;;;;;;;11.76;41.30;100399.19;5089875;28;20061;-64
2023/10/22 06:37:17;;;;;;;;;;;;;;;11.76;41.32;100401.06;5095526;28;19935;-64
2023/10/22 06:39:42;;;;;;;;;;;;;;;11.75;41.51;100402.09;5094998;28;20420;-65
2023/10/22 06:42:08;;;;;;;;;;;;;;;11.79;41.50;100393.41;5094547;28;19926;-69
2023/10/22 06:44:33;;;;;;;;;;;;;;;11.79;41.91;100403.34;5075146;28;20388;-69
2023/10/22 06:46:58;;;;;;;;;;;;;;;11.82;41.52;100403.75;5093638;28;19912;-69
2023/10/22 06:49:24;;;;;;;;;;;;;;;11.84;41.45;100394.66;5105412;28;19916;-68
2023/10/22 06:51:49;;;;;;;;;;;;;;;11.80;41.45;100399.63;5114202;28;19912;-68
2023/10/22 06:54:14;;;;;;;;;;;;;;;11.78;41.54;100394.44;5113320;28;19912;-68
2023/10/22 06:56:40;;;;;;;;;;;;;;;11.83;41.53;100391.16;5074850;28;19931;-69
2023/10/22 06:59:05;;;;;;;;;;;;;;;11.77;41.50;100397.31;5093448;28;19919;-68
2023/10/22 07:01:30;;;;;;;;;;;;;;;11.80;41.69;100397.75;5093308;28;20467;-68
2023/10/22 07:03:56;;;;;;;;;;;;;;;11.78;41.74;100397.13;5093240;28;19916;-70
2023/10/22 07:06:21;;;;;;;;;;;;;;;11.84;41.46;100400.03;5093880;28;19999;-69
2023/10/22 07:08:48;;;;;;;;;;;;;;;11.94;41.07;100395.13;5093471;28;19923;-69
2023/10/22 07:11:14;;;;;;;;;;;;;;;11.99;41.21;100395.34;5093107;28;19924;-69
2023/10/22 07:13:39;;;;;;;;;;;;;;;11.96;41.41;100390.34;5106836;28;19916;-68
2023/10/22 07:16:05;;;;;;;;;;;;;;;12.01;40.98;100395.97;5094577;28;19912;-69
2023/10/22 07:18:30;;;;;;;;;;;;;;;12.07;41.28;100402.38;5113959;28;19916;-69
2023/10/22 07:20:55;;;;;;;;;;;;;;;12.10;41.14;100400.13;5107226;28;19923;-68
2023/10/22 07:23:21;;;;;;;;;;;;;;;12.10;40.85;100400.13;5095262;28;19916;-68
2023/10/22 07:25:46;;;;;;;;;;;;;;;12.15;40.77;100394.94;5097799;28;20395;-68
2023/10/22 07:28:12;;;;;;;;;;;;;;;12.11;41.14;100391.03;5091816;28;19920;-69
2023/10/22 07:30:37;;;;;;;;;;;;;;;12.09;41.21;100387.72;5091448;28;19915;-68
2023/10/22 07:33:02;;;;;;;;;;;;;;;12.11;41.07;100400.94;5093449;28;19999;-68
2023/10/22 07:35:28;;;;;;;;;;;;;;;12.05;41.06;100399.06;5098073;28;19958;-69
2023/10/22 07:37:53;;;;;;;;;;;;;;;12.07;41.08;100397.00;5096078;28;19981;-68
2023/10/22 07:40:18;;;;;;;;;;;;;;;12.06;40.85;100395.34;5096459;28;19926;-69
2023/10/22 07:42:44;;;;;;;;;;;;;;;12.13;41.24;100397.03;5102839;28;19974;-68
2023/10/22 07:45:10;;;;;;;;;;;;;;;12.15;40.84;100397.66;5095812;28;20325;-68
2023/10/22 07:47:36;;;;;;;;;;;;;;;12.16;41.24;100395.78;5078497;28;19916;-68
2023/10/22 07:50:05;;;;;;;;;;;;;;;12.16;40.66;100391.19;5108759;28;19958;-69
2023/10/22 07:52:31;;;;;;;;;;;;;;;12.16;40.62;100396.59;5096138;28;20007;-68
2023/10/22 07:54:56;;;;;;;;;;;;;;;12.18;41.07;100385.63;5096703;28;20082;-68
2023/10/22 07:57:21;;;;;;;;;;;;;;;12.23;41.23;100395.78;5100511;28;20006;-68
2023/10/22 07:59:47;;;;;;;;;;;;;;;12.27;41.04;100384.38;5090757;28;20297;-69
2023/10/22 08:02:12;;;;;;;;;;;;;;;12.30;40.95;100396.63;5086655;28;19969;-69
2023/10/22 08:04:37;;;;;;;;;;;;;;;12.34;41.00;100392.47;5078065;28;19998;-68
2023/10/22 08:07:03;;;;;;;;;;;;;;;12.35;40.77;100394.13;5095879;28;19916;-69
2023/10/22 08:09:28;;;;;;;;;;;;;;;12.39;40.75;100400.78;5095784;28;19916;-70
2023/10/22 08:11:54;;;;;;;;;;;;;;;12.38;41.12;100394.53;5095570;28;19928;-70
2023/10/22 08:14:19;;;;;;;;;;;;;;;12.40;40.98;100397.03;5094980;28;19999;-68
2023/10/22 08:16:45;;;;;;;;;;;;;;;12.44;40.69;100397.44;5089686;28;19939;-74
2023/10/22 08:19:10;;;;;;;;;;;;;;;12.47;41.01;100392.47;5095621;28;20004;-68
2023/10/22 08:21:35;;;;;;;;;;;;;;;12.50;40.97;100385.81;5095234;28;19927;-67
2023/10/22 08:24:00;;;;;;;;;;;;;;;12.53;40.91;100390.81;5095346;28;20371;-67
2023/10/22 08:26:26;;;;;;;;;;;;;;;12.56;40.89;100383.13;5095667;28;20257;-68
2023/10/22 08:28:51;;;;;;;;;;;;;;;12.59;40.76;100381.88;5095120;28;19912;-68
2023/10/22 08:31:16;;;;;;;;;;;;;;;12.58;40.88;100389.16;5095693;28;19916;-68
2023/10/22 08:33:41;;;;;;;;;;;;;;;12.61;40.60;100382.53;5096279;28;19918;-69
2023/10/22 08:36:07;;;;;;;;;;;;;;;12.63;40.83;100387.69;5095944;28;19916;-69
2023/10/22 08:38:33;;;;;;;;;;;;;;;12.66;40.99;100389.97;5095764;28;19912;-68
2023/10/22 08:40:58;;;;;;;;;;;;;;;12.71;40.93;100382.09;5096031;28;20319;-68
2023/10/22 08:43:25;;;;;;;;;;;;;;;12.77;40.83;100382.06;5095765;28;19912;-68
2023/10/22 08:45:51;;;;;;;;;;;;;;;12.80;41.09;100378.13;5095459;28;19946;-68
2023/10/22 08:48:17;;;;;;;;;;;;;;;12.84;40.08;100382.06;5092869;28;20376;-68
2023/10/22 08:50:43;;;;;;;;;;;;;;;12.92;40.57;100381.00;5086320;28;20609;-68
2023/10/22 08:53:11;;;;;;;;;;;;;;;12.98;40.46;100378.31;5115840;28;19912;-68
2023/10/22 08:55:36;;;;;;;;;;;;;;;12.97;40.99;100373.94;5112423;28;20267;-68
2023/10/22 08:58:02;;;;;;;;;;;;;;;13.03;40.70;100382.22;5095632;28;20037;-67
2023/10/22 09:00:28;;;;;;;;;;;;;;;13.05;40.04;100380.97;5113921;28;20006;-67
2023/10/22 09:02:53;;;;;;;;;;;;;;;13.13;40.61;100378.06;5101741;28;19916;-67
2023/10/22 09:05:19;;;;;;;;;;;;;;;13.20;40.45;100377.19;5095679;28;20006;-67
2023/10/22 09:07:54;;;;;;;;;;;;;;;13.21;40.98;100385.06;5095759;28;20346;-67
2023/10/22 09:10:23;;;;;;;;;;;;;;;12.58;40.29;100264.41;5095154;28;19931;-66
2023/10/22 09:12:48;;;;;;;;;;;;;;;13.31;40.24;100371.16;5095833;28;19916;-65
2023/10/22 09:15:14;;;;;;;;;;;;;;;13.35;39.90;100367.84;5095789;28;20234;-66
2023/10/22 09:17:39;;;;;;;;;;;;;;;13.40;40.27;100377.97;5109824;28;19935;-66
2023/10/22 09:20:19;;;;;;;;;;;;;;;13.42;40.57;100378.56;5116054;28;19912;-66
2023/10/22 09:22:44;;;;;;;;;;;;;;;13.42;40.41;100370.50;5116005;28;19916;-68
2023/10/22 09:25:10;;;;;;;;;;;;;;;13.49;40.45;100381.25;5109902;28;19930;-68
2023/10/22 09:27:35;;;;;;;;;;;;;;;13.52;40.22;100370.88;5094784;28;20323;-68
2023/10/22 09:30:02;;;;;;;;;;;;;;;13.57;40.60;100375.59;5094808;28;19916;-68
2023/10/22 09:32:27;;;;;;;;;;;;;;;13.57;40.12;100377.47;5095021;28;19919;-68
2023/10/22 09:34:52;;;;;;;;;;;;;;;13.60;40.48;100383.28;5096525;28;21247;-67
2023/10/22 09:37:18;;;;;;;;;;;;;;;13.67;40.39;100380.53;5076472;28;20030;-67
2023/10/22 09:39:44;;;;;;;;;;;;;;;13.67;39.95;100384.06;5094964;28;19912;-67
2023/10/22 09:42:10;;;;;;;;;;;;;;;13.72;39.78;100375.31;5094465;28;20383;-67
2023/10/22 09:44:37;;;;;;;;;;;;;;;13.74;39.51;100378.63;5095026;28;19923;-67
2023/10/22 09:47:03;;;;;;;;;;;;;;;13.84;39.86;100380.88;5095170;28;20371;-67
2023/10/22 09:49:33;;;;;;;;;;;;;;;13.88;39.99;100377.50;5095471;28;19912;-67
2023/10/22 09:52:02;;;;;;;;;;;;;;;13.90;39.03;100375.41;5107055;28;20388;-67
2023/10/22 09:54:35;;;;;;;;;;;;;;;13.97;39.19;100383.47;5093911;28;19912;-67
2023/10/22 09:57:05;;;;;;;;;;;;;;;14.02;39.72;100386.34;5091539;28;20398;-68
2023/10/22 09:59:32;;;;;;;;;;;;;;;14.02;39.51;100377.41;5093678;28;20353;-69
2023/10/22 10:01:58;;;;;;;;;;;;;;;14.05;39.63;100385.09;5093850;28;19966;-69
2023/10/22 10:04:24;;;;;;;;;;;;;;;14.08;39.51;100379.25;5094428;28;19912;-67
2023/10/22 10:06:50;;;;;;;;;;;;;;;14.08;39.61;100376.56;5094341;28;19919;-67
2023/10/22 10:09:16;;;;;;;;;;;;;;;14.14;39.79;100375.66;5093817;28;19912;-67
2023/10/22 10:11:41;;;;;;;;;;;;;;;14.14;39.47;100376.47;5093719;28;19920;-67
2023/10/22 10:14:13;;;;;;;;;;;;;;;14.20;39.36;100369.38;5094630;28;19947;-67
2023/10/22 10:16:44;;;;;;;;;;;;;;;14.24;39.42;100367.06;5097532;28;20417;-67
2023/10/22 10:19:10;;;;;;;;;;;;;;;14.32;39.39;100361.41;5114929;28;19911;-67
2023/10/22 10:21:38;;;;;;;;;;;;;;;14.34;39.26;100364.72;5114542;28;19915;-66
2023/10/22 10:24:22;;;;;;;;;;;;;;;14.40;39.42;100360.28;5114550;28;19919;-67
2023/10/22 10:26:50;;;;;;;;;;;;;;;14.45;39.23;100363.13;5096236;28;19919;-67
2023/10/22 10:29:16;;;;;;;;;;;;;;;14.47;38.78;100361.88;5101628;28;20494;-67
2023/10/22 10:31:45;;;;;;;;;;;;;;;14.45;39.47;100358.59;5093868;28;19915;-67
2023/10/22 10:34:19;;;;;;;;;;;;;;;14.43;39.15;100351.72;5096385;28;20003;-67
2023/10/22 10:36:45;;;;;;;;;;;;;;;14.41;38.14;100357.38;5095922;28;19916;-67
2023/10/22 10:39:29;;;;;;;;;;;;;;;14.39;39.27;100361.31;5075132;28;19916;-68
2023/10/22 10:41:54;;;;;;;;;;;;;;;14.32;38.28;100354.13;5075133;28;19923;-68
2023/10/22 10:44:19;;;;;;;;;;;;;;;14.26;38.77;100356.88;5093794;28;20361;-68
2023/10/22 10:46:45;;;;;;;;;;;;;;;14.24;38.64;100362.47;5075272;28;19916;-68
2023/10/22 10:49:10;;;;;;;;;;;;;;;14.20;38.72;100355.06;5093513;28;19965;-68
2023/10/22 10:51:35;;;;;;;;;;;;;;;14.20;39.46;100349.66;5096889;28;19923;-67
2023/10/22 10:54:00;;;;;;;;;;;;;;;14.24;39.41;100350.84;5092537;28;19916;-67
2023/10/22 10:56:47;;;;;;;;;;;;;;;14.21;38.71;100348.59;5093200;28;19915;-68
2023/10/22 10:59:25;;;;;;;;;;;;;;;14.19;39.02;100353.38;5093098;28;19927;-67
2023/10/22 11:02:01;;;;;;;;;;;;;;;14.21;39.61;100356.69;5090424;28;19927;-67
2023/10/22 11:04:27;;;;;;;;;;;;;;;14.23;38.90;100358.13;5092976;28;20368;-68
2023/10/22 11:06:53;;;;;;;;;;;;;;;14.23;38.85;100355.44;5093103;28;19995;-67
2023/10/22 11:09:18;;;;;;;;;;;;;;;14.22;39.02;100351.06;5092836;28;19912;-68
2023/10/22 11:12:03;;;;;;;;;;;;;;;14.16;39.19;100356.53;5092849;28;19955;-68
2023/10/22 11:14:33;;;;;;;;;;;;;;;14.17;38.54;100350.09;5092167;28;19912;-68
2023/10/22 11:16:58;;;;;;;;;;;;;;;14.17;38.84;100348.22;5093966;28;20007;-68
2023/10/22 11:19:24;;;;;;;;;;;;;;;14.22;39.25;100345.66;5093024;28;19998;-68
2023/10/22 11:21:50;;;;;;;;;;;;;;;14.22;38.47;100355.66;5074688;28;19925;-68
2023/10/22 11:24:16;;;;;;;;;;;;;;;14.23;38.66;100350.03;5093020;28;20332;-67
2023/10/22 11:26:42;;;;;;;;;;;;;;;14.27;39.10;100355.81;5092788;28;19916;-67
2023/10/22 11:29:08;;;;;;;;;;;;;;;14.26;38.60;100349.59;5093026;28;20324;-67
2023/10/22 11:31:33;;;;;;;;;;;;;;;14.22;38.40;100353.78;5093177;28;19919;-68
2023/10/22 11:34:14;;;;;;;;;;;;;;;14.27;37.99;100361.22;5093198;28;19912;-67
2023/10/22 11:36:39;;;;;;;;;;;;;;;14.22;38.75;100359.19;5093080;28;19971;-67
2023/10/22 11:39:15;;;;;;;;;;;;;;;14.29;39.16;100359.13;5088113;28;19963;-71
2023/10/22 11:41:40;;;;;;;;;;;;;;;14.33;38.63;100360.34;5093575;28;19966;-71
2023/10/22 11:44:05;;;;;;;;;;;;;;;14.32;38.85;100359.53;5073903;28;19924;-71
2023/10/22 11:46:40;;;;;;;;;;;;;;;14.33;38.95;100354.94;5090523;28;20361;-71
2023/10/22 11:49:06;;;;;;;;;;;;;;;14.36;38.75;100362.59;5093041;28;20380;-71
2023/10/22 11:51:43;;;;;;;;;;;;;;;14.32;38.44;100359.53;5092624;28;19965;-72
2023/10/22 11:54:09;;;;;;;;;;;;;;;14.37;38.17;100360.72;5087599;28;19919;-72
2023/10/22 11:56:34;;;;;;;;;;;;;;;14.43;38.84;100366.09;5073814;28;19912;-72
2023/10/22 11:58:59;;;;;;;;;;;;;;;14.43;38.62;100357.13;5090396;28;19912;-72
2023/10/22 12:01:25;;;;;;;;;;;;;;;14.41;38.71;100362.78;5073810;28;19996;-73
2023/10/22 12:03:51;;;;;;;;;;;;;;;14.43;39.21;100359.84;5073909;28;19955;-69
2023/10/22 12:06:16;;;;;;;;;;;;;;;14.41;38.63;100359.22;5090527;28;19962;-68
2023/10/22 12:08:41;;;;;;;;;;;;;;;14.45;38.88;100360.44;5092513;28;19912;-68
2023/10/22 12:11:09;;;;;;;;;;;;;;;14.39;38.23;100350.53;5072186;28;20273;-69
2023/10/22 12:13:34;;;;;;;;;;;;;;;14.43;39.20;100347.16;5088245;28;19912;-68
2023/10/22 12:16:00;;;;;;;;;;;;;;;14.42;38.46;100348.19;5092213;28;19943;-68
2023/10/22 12:18:26;;;;;;;;;;;;;;;14.47;38.86;100348.38;5091613;28;20011;-68
2023/10/22 12:20:51;;;;;;;;;;;;;;;14.49;38.85;100348.97;5093094;28;19986;-68
2023/10/22 12:23:16;;;;;;;;;;;;;;;14.57;38.39;100347.03;5094625;28;19920;-68
2023/10/22 12:25:42;;;;;;;;;;;;;;;14.59;39.18;100344.97;5096418;28;19912;-67
2023/10/22 12:28:07;;;;;;;;;;;;;;;14.72;38.81;100344.81;5109851;28;20442;-68
2023/10/22 12:30:34;;;;;;;;;;;;;;;14.76;38.86;100348.72;5094757;28;20386;-68